Time;durP1;ratioP1;P1;durP2;ratioP2;P2;SDS_P1;SDS_P2;PMS_P1;PMS_P2;Temp;Humidity;BMP_temperature;BMP_pressure;BME280_temperature;BME280_humidity;BME280_pressure;Samples;Min_cycle;Max_cycle;Signal;HPM_P1;HPM_P2
2020/12/01 00:09:45;;;;;;;59.47;22.45;;;-2.00;99.90;;;;;;21120930;22;20454;-73
2020/12/01 00:19:46;;;;;;;66.10;25.15;;;-1.90;99.90;;;;;;21048202;28;20384;-73
2020/12/01 00:29:46;;;;;;;69.40;24.50;;;-1.80;99.90;;;;;;20991762;28;20028;-74
2020/12/01 00:39:47;;;;;;;60.95;22.90;;;-1.80;99.90;;;;;;20991102;28;20070;-73
2020/12/01 00:49:48;;;;;;;67.03;23.85;;;-1.70;99.90;;;;;;20990284;28;20033;-73
2020/12/01 00:59:49;;;;;;;54.08;22.05;;;-1.60;99.90;;;;;;20988831;28;20040;-73
2020/12/01 01:09:58;;;;;;;57.75;21.48;;;-1.50;99.90;;;;;;20988684;28;20052;-74
2020/12/01 01:20:05;;;;;;;62.35;22.13;;;-1.30;99.90;;;;;;20989045;28;20035;-75
2020/12/01 01:30:06;;;;;;;55.05;19.88;;;-1.10;99.90;;;;;;20989092;28;20124;-74
2020/12/01 01:40:14;;;;;;;51.38;19.80;;;-1.00;99.90;;;;;;20988467;28;20066;-76
2020/12/01 01:50:18;;;;;;;60.90;22.02;;;-0.90;99.90;;;;;;20988046;28;20495;-73
2020/12/01 02:00:58;;;;;;;62.42;22.67;;;-0.70;99.90;;;;;;20992483;28;20032;-74
2020/12/01 02:11:00;;;;;;;64.75;23.63;;;-0.60;99.90;;;;;;21002187;28;20452;-73
2020/12/01 02:21:20;;;;;;;54.55;20.52;;;-0.40;99.90;;;;;;21000142;28;20089;-74
2020/12/01 02:31:21;;;;;;;57.40;22.17;;;-0.30;99.90;;;;;;20999643;28;20497;-75
2020/12/01 02:41:22;;;;;;;55.78;21.92;;;-0.20;99.90;;;;;;21000294;28;20028;-75
2020/12/01 02:51:23;;;;;;;57.42;21.40;;;-0.10;99.90;;;;;;20999404;28;20044;-74
2020/12/01 03:01:24;;;;;;;58.45;20.92;;;-0.20;99.90;;;;;;20998606;28;20033;-75
2020/12/01 03:11:25;;;;;;;60.33;21.85;;;-0.30;99.90;;;;;;20997220;28;20097;-72
2020/12/01 03:21:26;;;;;;;56.83;21.80;;;-0.30;99.90;;;;;;20995576;28;20408;-75
2020/12/01 03:31:27;;;;;;;58.50;22.35;;;-0.40;99.90;;;;;;20996029;28;20060;-74
2020/12/01 03:41:28;;;;;;;59.45;22.35;;;-0.40;99.90;;;;;;20995223;28;20513;-74
2020/12/01 03:51:29;;;;;;;61.42;23.40;;;-0.40;99.90;;;;;;20994712;28;20024;-74
2020/12/01 04:01:29;;;;;;;66.80;23.65;;;-0.50;99.90;;;;;;20993684;28;20079;-75
2020/12/01 04:11:30;;;;;;;71.05;23.40;;;-0.40;99.90;;;;;;20991484;28;20033;-75
2020/12/01 04:21:31;;;;;;;55.10;20.63;;;-0.20;99.90;;;;;;20990136;28;20032;-74
2020/12/01 04:31:32;;;;;;;55.13;20.13;;;-0.10;99.90;;;;;;20991550;28;20036;-75
2020/12/01 04:41:33;;;;;;;53.45;20.75;;;-0.10;99.90;;;;;;20990939;28;20551;-74
2020/12/01 04:52:00;;;;;;;51.40;20.63;;;-0.10;99.90;;;;;;20995841;28;20043;-74
2020/12/01 05:02:21;;;;;;;59.95;21.42;;;-0.10;99.90;;;;;;21010004;28;20517;-75
2020/12/01 05:12:36;;;;;;;63.33;22.92;;;-0.10;99.90;;;;;;21071110;28;20031;-75
2020/12/01 05:22:40;;;;;;;53.10;20.88;;;-0.10;99.90;;;;;;21008019;28;20163;-75
2020/12/01 05:32:51;;;;;;;54.83;21.65;;;0.00;99.90;;;;;;21006281;28;20040;-74
2020/12/01 05:42:52;;;;;;;54.57;21.07;;;0.10;99.90;;;;;;21016035;28;20570;-74
2020/12/01 05:53:07;;;;;;;52.45;20.33;;;0.20;99.90;;;;;;21007243;28;20032;-74
2020/12/01 06:03:17;;;;;;;55.60;20.10;;;0.10;99.90;;;;;;21056658;28;20097;-74
2020/12/01 06:13:45;;;;;;;48.38;20.27;;;0.10;99.90;;;;;;21106030;23;20040;-81
2020/12/01 06:24:12;;;;;;;64.32;24.05;;;0.20;99.90;;;;;;21064128;28;20051;-81
2020/12/01 06:34:59;;;;;;;51.33;19.13;;;0.20;99.90;;;;;;21065231;28;20042;-81
2020/12/01 06:45:28;;;;;;;59.33;21.25;;;0.20;99.90;;;;;;21044350;28;20425;-81
2020/12/01 06:56:04;;;;;;;72.72;25.98;;;0.30;99.90;;;;;;21026725;28;20047;-80
2020/12/01 07:06:22;;;;;;;86.57;27.67;;;0.30;99.90;;;;;;20995552;28;20098;-81
2020/12/01 07:16:37;;;;;;;63.85;22.45;;;0.30;99.90;;;;;;21003935;28;20518;-84
2020/12/01 07:26:47;;;;;;;108.18;25.45;;;0.30;99.90;;;;;;21008181;28;20081;-80
2020/12/01 07:36:54;;;;;;;56.83;20.53;;;0.30;99.90;;;;;;21001772;28;20058;-81
2020/12/01 07:47:05;;;;;;;48.22;20.67;;;0.30;99.90;;;;;;20998921;28;20139;-80
2020/12/01 07:57:32;;;;;;;50.78;18.67;;;0.40;99.90;;;;;;20993789;28;20029;-80
2020/12/01 08:07:35;;;;;;;32.45;13.02;;;0.50;99.90;;;;;;20992107;28;20074;-80
2020/12/01 08:17:38;;;;;;;33.20;14.25;;;0.50;99.90;;;;;;20989520;28;20039;-81
2020/12/01 08:27:48;;;;;;;43.65;16.40;;;0.60;99.90;;;;;;20988754;28;20045;-80
2020/12/01 08:38:46;;;;;;;59.25;21.13;;;0.60;99.90;;;;;;20992161;28;20048;-80
2020/12/01 08:48:51;;;;;;;43.13;18.95;;;0.70;99.90;;;;;;20969500;28;20062;-81
2020/12/01 08:58:54;;;;;;;32.42;12.80;;;0.80;99.90;;;;;;21048695;28;20027;-80
2020/12/01 09:09:14;;;;;;;30.52;13.57;;;1.00;99.90;;;;;;21050574;28;20082;-80
2020/12/01 09:29:51;;;;;;;30.48;13.07;;;1.00;99.90;;;;;;21065834;28;20028;-81
2020/12/01 09:39:52;;;;;;;26.98;12.43;;;1.20;99.90;;;;;;21090061;28;20367;-80
2020/12/01 09:49:53;;;;;;;28.10;13.90;;;1.30;99.90;;;;;;21087147;28;20040;-80
2020/12/01 10:41:12;;;;;;;28.30;13.15;;;1.70;99.90;;;;;;21087045;28;20040;-80
2020/12/01 10:51:13;;;;;;;24.95;12.20;;;1.70;99.90;;;;;;21100124;28;20028;-81
2020/12/01 11:01:13;;;;;;;;;;;1.70;99.90;;;;;;21082910;28;20052;-81
2020/12/01 11:11:19;;;;;;;26.58;12.15;;;1.50;99.90;;;;;;21095744;28;19922;-81
2020/12/01 11:21:20;;;;;;;24.92;10.93;;;1.50;99.90;;;;;;21093892;28;20027;-81
2020/12/01 11:31:21;;;;;;;19.13;10.02;;;1.50;99.90;;;;;;21075736;28;20079;-81
2020/12/01 11:41:22;;;;;;;12.90;7.03;;;1.50;99.90;;;;;;21060630;28;20119;-80
2020/12/01 11:51:23;;;;;;;24.85;11.73;;;1.80;99.90;;;;;;21060857;28;20047;-81
2020/12/01 12:01:24;;;;;;;;;;;1.80;99.90;;;;;;21092122;28;20040;-81
2020/12/01 12:11:24;;;;;;;17.00;8.68;;;1.80;99.90;;;;;;21076686;22;20007;-73
2020/12/01 12:21:25;;;;;;;;;;;2.00;99.90;;;;;;21049385;28;20030;-73
2020/12/01 12:31:26;;;;;;;15.38;7.70;;;2.00;99.90;;;;;;20992486;28;19991;-73
2020/12/01 12:41:27;;;;;;;;;;;1.90;99.90;;;;;;20991458;28;20102;-73
2020/12/01 12:51:28;;;;;;;16.48;8.13;;;1.80;99.90;;;;;;20973574;28;20007;-73
2020/12/01 13:01:28;;;;;;;;;;;1.90;99.90;;;;;;20991316;28;20115;-73
2020/12/01 13:11:29;;;;;;;18.20;7.57;;;2.00;99.90;;;;;;20990252;28;19948;-73
2020/12/01 13:21:30;;;;;;;16.85;8.05;;;1.90;99.90;;;;;;20989889;28;20289;-73
2020/12/01 13:31:31;;;;;;;18.10;9.63;;;2.00;99.90;;;;;;20971532;28;20384;-73
2020/12/01 13:41:32;;;;;;;21.33;8.05;;;1.80;99.90;;;;;;20989514;28;20062;-73
2020/12/01 13:51:33;;;;;;;;;;;1.80;99.90;;;;;;20989265;28;20522;-73
2020/12/01 14:01:33;;;;;;;19.92;8.93;;;1.80;99.90;;;;;;21003332;28;19919;-73
2020/12/01 14:11:34;;;;;;;;;;;1.80;99.90;;;;;;21002292;28;20588;-73
2020/12/01 14:21:35;;;;;;;22.63;9.27;;;2.00;99.90;;;;;;21002154;28;19913;-73
2020/12/01 14:31:36;;;;;;;18.50;9.30;;;2.00;99.90;;;;;;21001434;28;20036;-74
2020/12/01 14:41:37;;;;;;;;;;;1.90;99.90;;;;;;21001136;28;20731;-74
2020/12/01 14:52:12;;;;;;;20.53;9.47;;;1.90;99.90;;;;;;21000009;28;19916;-74
2020/12/01 15:02:45;;;;;;;23.67;11.35;;;1.80;99.90;;;;;;20998972;28;20290;-73
2020/12/01 15:12:49;;;;;;;29.00;12.70;;;1.60;99.90;;;;;;20997667;28;20041;-73
2020/12/01 15:23:04;;;;;;;22.50;11.25;;;1.50;99.90;;;;;;20997550;28;20024;-74
2020/12/01 15:33:08;;;;;;;28.40;11.85;;;1.50;99.90;;;;;;20996757;28;20087;-73
2020/12/01 15:43:24;;;;;;;36.97;14.32;;;1.40;99.90;;;;;;20995551;28;20024;-74
2020/12/01 15:53:53;;;;;;;39.00;14.80;;;1.40;99.90;;;;;;20977167;28;20111;-74
2020/12/01 16:04:18;;;;;;;26.40;12.65;;;1.30;99.90;;;;;;20991916;28;20393;-74
2020/12/01 16:14:28;;;;;;;32.13;12.70;;;1.30;99.90;;;;;;20975228;28;20028;-75
2020/12/01 16:24:41;;;;;;;28.00;12.77;;;1.30;99.90;;;;;;20991650;28;20560;-74
2020/12/01 16:34:43;;;;;;;24.77;12.13;;;1.30;99.90;;;;;;20991544;28;20093;-74
2020/12/01 16:44:53;;;;;;;22.55;11.10;;;1.30;99.90;;;;;;20999005;28;20036;-74
2020/12/01 16:55:36;;;;;;;25.55;10.77;;;1.30;99.90;;;;;;21032364;28;20095;-75
2020/12/01 17:05:49;;;;;;;19.17;10.50;;;1.20;99.90;;;;;;21008495;28;20048;-74
2020/12/01 17:15:53;;;;;;;19.98;11.07;;;1.20;99.90;;;;;;21037231;28;20063;-73
2020/12/01 17:25:58;;;;;;;20.77;10.05;;;1.20;99.90;;;;;;21043705;28;20473;-75
2020/12/01 17:36:20;;;;;;;25.80;11.20;;;1.20;99.90;;;;;;21003504;28;20060;-75
2020/12/01 17:46:33;;;;;;;21.90;11.15;;;1.30;99.90;;;;;;20985607;28;20043;-75
2020/12/01 17:56:34;;;;;;;25.48;13.02;;;1.40;99.90;;;;;;20983584;28;20111;-74
2020/12/01 18:06:35;;;;;;;;;;;1.30;99.90;;;;;;20985653;23;20173;-82
2020/12/01 18:16:59;;;;;;;24.92;12.00;;;1.30;99.90;;;;;;21069694;28;19952;-80
2020/12/01 18:27:41;;;;;;;27.88;12.38;;;1.30;99.90;;;;;;21053254;28;20086;-81
2020/12/01 18:37:45;;;;;;;23.30;12.25;;;1.20;99.90;;;;;;21080424;28;20047;-82
2020/12/01 18:47:45;;;;;;;30.73;13.65;;;1.20;99.90;;;;;;20992894;28;20038;-81
2020/12/01 18:57:46;;;;;;;;;;;0.90;99.90;;;;;;20983079;28;20068;-83
2020/12/01 19:07:47;;;;;;;90.87;28.67;;;0.90;99.90;;;;;;20995720;28;19916;-82
2020/12/01 19:17:48;;;;;;;65.68;18.00;;;1.00;99.90;;;;;;20955236;28;20374;-80
2020/12/01 19:27:49;;;;;;;42.15;16.52;;;1.00;99.90;;;;;;20985626;28;20102;-80
2020/12/01 19:37:55;;;;;;;40.03;15.95;;;0.70;99.90;;;;;;20956458;28;20100;-81
2020/12/01 19:47:56;;;;;;;35.63;12.95;;;0.70;99.90;;;;;;20973692;28;20067;-82
2020/12/01 19:57:57;;;;;;;132.88;16.67;;;0.70;99.90;;;;;;20973557;28;20547;-81
2020/12/01 20:07:59;;;;;;;14.75;7.57;;;0.50;99.90;;;;;;21000200;28;20068;-81
2020/12/01 20:18:00;;;;;;;21.80;8.27;;;0.10;99.90;;;;;;21043186;28;20406;-81
2020/12/01 20:28:00;;;;;;;10.77;6.05;;;0.40;99.90;;;;;;21051303;28;20032;-81
2020/12/01 20:38:07;;;;;;;11.80;5.45;;;0.40;99.90;;;;;;20998854;28;20066;-80
2020/12/01 20:48:10;;;;;;;8.00;4.93;;;0.50;99.90;;;;;;21027725;28;20028;-81
2020/12/01 20:58:12;;;;;;;9.48;3.92;;;0.40;99.90;;;;;;21024625;28;20024;-80
2020/12/01 21:08:15;;;;;;;11.60;5.90;;;0.10;99.90;;;;;;20977232;28;20461;-80
2020/12/01 21:18:22;;;;;;;13.73;7.32;;;0.10;99.90;;;;;;21032445;28;20042;-82
2020/12/01 21:28:29;;;;;;;17.02;8.38;;;0.20;99.90;;;;;;21052136;28;20486;-81
2020/12/01 21:38:30;;;;;;;16.08;8.32;;;0.30;99.90;;;;;;20958794;28;20033;-81
2020/12/01 21:48:32;;;;;;;19.17;9.00;;;0.50;99.90;;;;;;20975888;28;20406;-81
2020/12/01 21:58:42;;;;;;;19.60;9.30;;;0.50;99.90;;;;;;20993955;28;20098;-81
2020/12/01 22:08:54;;;;;;;17.45;8.50;;;0.60;99.90;;;;;;20993308;28;20033;-81
2020/12/01 22:18:59;;;;;;;16.52;8.70;;;0.70;99.90;;;;;;20983379;28;20032;-81
2020/12/01 22:29:33;;;;;;;19.33;8.68;;;0.80;99.90;;;;;;20972651;28;20051;-81
2020/12/01 22:39:34;;;;;;;18.33;8.68;;;0.70;99.90;;;;;;20986873;28;20145;-82
2020/12/01 22:50:08;;;;;;;23.10;9.98;;;0.60;99.90;;;;;;20987129;28;20032;-82
2020/12/01 23:00:29;;;;;;;24.35;9.70;;;0.70;99.90;;;;;;20969455;28;20407;-81
2020/12/01 23:10:36;;;;;;;22.37;8.37;;;0.80;99.90;;;;;;20962975;28;20090;-81
2020/12/01 23:20:38;;;;;;;15.75;7.75;;;0.90;99.90;;;;;;20991063;28;20043;-81
2020/12/01 23:30:50;;;;;;;21.15;9.50;;;0.90;99.90;;;;;;20987318;28;20024;-81
2020/12/01 23:40:53;;;;;;;23.83;10.82;;;0.90;99.90;;;;;;20984934;28;20086;-81
2020/12/01 23:50:54;;;;;;;22.10;9.88;;;0.90;99.90;;;;;;20985668;28;20037;-81
